createdAt,value
2022-12-14T00:01:34.696Z,15.40
2022-12-14T00:04:01.185Z,15.23
2022-12-14T00:06:31.685Z,12.17
2022-12-14T00:09:01.268Z,12.67
2022-12-14T00:11:28.036Z,12.07
2022-12-14T00:14:01.690Z,14.33
2022-12-14T00:16:31.466Z,13.93
2022-12-14T00:19:00.272Z,18.80
2022-12-14T00:21:27.454Z,21.10
2022-12-14T00:23:58.278Z,19.67
2022-12-14T00:26:31.026Z,24.90
2022-12-14T00:28:59.828Z,26.17
2022-12-14T00:31:27.223Z,22.00
2022-12-14T00:33:54.663Z,22.63
2022-12-14T00:36:22.735Z,14.07
2022-12-14T00:38:49.335Z,20.70
2022-12-14T00:41:15.889Z,24.37
2022-12-14T00:43:42.706Z,22.73
2022-12-14T00:46:09.236Z,24.90
2022-12-14T00:48:35.768Z,19.63
2022-12-14T00:51:02.654Z,19.33
2022-12-14T00:53:29.177Z,18.70
2022-12-14T00:55:55.682Z,19.97
2022-12-14T00:58:24.564Z,18.07
2022-12-14T01:01:12.777Z,22.70
2022-12-14T01:03:39.655Z,17.87
2022-12-14T01:06:12.080Z,20.30
2022-12-14T01:08:38.552Z,17.60
2022-12-14T01:11:07.074Z,22.23
2022-12-14T01:13:35.064Z,20.40
2022-12-14T01:16:19.741Z,19.60
2022-12-14T01:18:46.272Z,19.47
2022-12-14T01:21:18.113Z,18.33
2022-12-14T01:23:47.628Z,20.43
2022-12-14T01:26:16.861Z,20.43
2022-12-14T01:28:45.123Z,21.40
2022-12-14T01:31:18.216Z,25.80
2022-12-14T01:33:45.016Z,19.17
2022-12-14T01:36:19.353Z,19.87
2022-12-14T01:38:46.289Z,17.07
2022-12-14T01:41:40.214Z,23.57
2022-12-14T01:45:37.218Z,19.27
2022-12-14T01:48:04.693Z,14.90
2022-12-14T01:50:41.375Z,18.77
2022-12-14T01:53:22.043Z,17.40
2022-12-14T01:55:54.570Z,22.20
2022-12-14T01:58:26.076Z,21.10
2022-12-14T02:00:57.364Z,21.33
2022-12-14T02:03:37.422Z,18.53
2022-12-14T02:06:24.880Z,19.27
2022-12-14T02:08:53.988Z,19.87
2022-12-14T02:11:50.573Z,19.20
2022-12-14T02:14:17.088Z,22.60
2022-12-14T02:16:43.622Z,18.83
2022-12-14T02:19:10.134Z,17.10
2022-12-14T02:22:24.757Z,20.90
2022-12-14T02:29:28.108Z,20.70
2022-12-14T02:34:57.858Z,14.67
2022-12-14T02:37:49.026Z,19.87
2022-12-14T02:41:16.389Z,20.00
2022-12-14T02:44:22.223Z,20.50
2022-12-14T02:47:06.628Z,20.40
2022-12-14T02:51:25.368Z,19.07
2022-12-14T02:54:19.791Z,15.97
2022-12-14T02:57:03.149Z,19.80
2022-12-14T02:59:33.047Z,17.43
2022-12-14T03:02:03.455Z,17.33
2022-12-14T03:04:30.116Z,16.60
2022-12-14T03:07:02.539Z,19.77
2022-12-14T03:09:31.842Z,17.87
2022-12-14T03:12:08.884Z,19.90
2022-12-14T03:14:50.626Z,14.77
2022-12-14T03:17:27.111Z,22.57
2022-12-14T03:20:10.815Z,14.47
2022-12-14T03:22:58.797Z,13.73
2022-12-14T03:26:00.806Z,19.13
2022-12-14T03:28:51.115Z,18.27
2022-12-14T03:31:49.431Z,18.50
2022-12-14T03:34:21.727Z,27.47
2022-12-14T03:37:15.694Z,27.07
2022-12-14T03:39:44.861Z,20.40
2022-12-14T03:44:13.801Z,20.57
2022-12-14T03:49:58.277Z,22.03
2022-12-14T03:52:39.403Z,17.13
2022-12-14T03:57:02.757Z,24.30
2022-12-14T04:02:24.720Z,20.17
2022-12-14T04:05:08.719Z,20.10
2022-12-14T04:08:29.532Z,24.20
2022-12-14T04:11:21.027Z,17.77
2022-12-14T04:14:40.059Z,19.37
2022-12-14T04:17:34.322Z,19.43
2022-12-14T04:20:16.970Z,21.23
2022-12-14T04:22:53.655Z,19.73
2022-12-14T04:25:50.207Z,19.13
2022-12-14T04:28:43.417Z,27.67
2022-12-14T04:31:18.716Z,22.07
2022-12-14T04:33:54.201Z,14.20
2022-12-14T04:36:37.867Z,18.03
2022-12-14T04:39:14.407Z,14.23
2022-12-14T04:41:47.850Z,22.47
2022-12-14T04:44:25.653Z,18.00
2022-12-14T04:46:55.377Z,20.73
2022-12-14T04:49:44.876Z,17.30
2022-12-14T04:52:23.895Z,17.53
2022-12-14T04:55:04.489Z,17.40
2022-12-14T04:57:47.383Z,14.03
2022-12-14T05:00:15.179Z,18.60
2022-12-14T05:03:31.314Z,22.33
2022-12-14T05:10:36.618Z,24.50
2022-12-14T05:13:49.910Z,23.90
2022-12-14T05:16:22.552Z,23.20
2022-12-14T05:18:50.070Z,32.90
2022-12-14T05:21:34.771Z,28.17
2022-12-14T05:24:03.471Z,36.07
2022-12-14T05:26:31.731Z,25.27
2022-12-14T05:28:58.314Z,28.90
2022-12-14T05:31:25.483Z,30.23
2022-12-14T05:33:51.994Z,22.60
2022-12-14T05:36:18.918Z,19.63
2022-12-14T05:38:45.869Z,34.60
2022-12-14T05:41:12.382Z,30.80
2022-12-14T05:43:38.853Z,40.90
2022-12-14T05:46:05.652Z,34.47
2022-12-14T05:48:33.347Z,38.50
2022-12-14T05:51:08.332Z,33.40
2022-12-14T05:53:39.404Z,31.00
2022-12-14T05:56:08.146Z,32.43
2022-12-14T05:58:35.247Z,31.80
2022-12-14T06:01:04.528Z,32.43
2022-12-14T06:03:31.363Z,33.90
2022-12-14T06:06:12.515Z,25.20
2022-12-14T06:08:44.583Z,32.07
2022-12-14T06:11:18.389Z,32.30
2022-12-14T06:13:45.757Z,28.30
2022-12-14T06:16:24.490Z,28.80
2022-12-14T06:18:55.220Z,30.50
2022-12-14T06:21:26.354Z,29.80
2022-12-14T06:23:54.158Z,35.20
2022-12-14T06:26:21.236Z,39.17
2022-12-14T06:28:47.800Z,46.67
2022-12-14T06:31:23.955Z,37.23
2022-12-14T06:33:52.500Z,45.50
2022-12-14T06:36:23.318Z,41.37
2022-12-14T06:38:54.765Z,36.87
2022-12-14T06:41:23.265Z,35.87
2022-12-14T06:43:51.489Z,32.93
2022-12-14T06:46:21.757Z,36.23
2022-12-14T06:48:55.223Z,36.17
2022-12-14T06:51:23.664Z,32.80
2022-12-14T06:53:55.235Z,35.17
2022-12-14T06:56:24.712Z,40.23
2022-12-14T06:58:53.681Z,31.53
2022-12-14T07:01:23.114Z,37.10
2022-12-14T07:03:52.905Z,38.73
2022-12-14T07:06:20.938Z,33.53
2022-12-14T07:08:48.677Z,35.97
2022-12-14T07:11:17.027Z,33.17
2022-12-14T07:13:44.060Z,39.40
2022-12-14T07:16:25.803Z,30.07
2022-12-14T07:18:53.982Z,38.07
2022-12-14T07:21:22.179Z,38.17
2022-12-14T07:23:51.586Z,34.57
2022-12-14T07:26:22.508Z,25.80
2022-12-14T07:28:49.962Z,28.93
2022-12-14T07:31:20.998Z,32.17
2022-12-14T07:33:48.681Z,28.37
2022-12-14T07:36:18.332Z,31.40
2022-12-14T07:38:48.271Z,32.67
2022-12-14T07:41:23.035Z,28.40
2022-12-14T07:43:51.745Z,37.57
2022-12-14T07:46:22.328Z,34.80
2022-12-14T07:48:55.104Z,31.43
2022-12-14T07:51:28.320Z,35.03
2022-12-14T07:53:55.466Z,41.60
2022-12-14T07:56:31.577Z,36.60
2022-12-14T07:59:00.451Z,45.60
2022-12-14T08:01:38.423Z,37.90
2022-12-14T08:04:11.336Z,33.60
2022-12-14T08:06:39.360Z,36.07
2022-12-14T08:09:08.276Z,35.13
2022-12-14T08:11:35.488Z,30.47
2022-12-14T08:14:10.180Z,36.90
2022-12-14T08:16:36.755Z,43.13
2022-12-14T08:19:03.731Z,34.70
2022-12-14T08:21:30.292Z,37.73
2022-12-14T08:23:59.175Z,40.10
2022-12-14T08:26:31.581Z,43.97
2022-12-14T08:29:01.704Z,36.53
2022-12-14T08:31:28.417Z,42.90
2022-12-14T08:33:55.064Z,36.20
2022-12-14T08:36:26.132Z,41.27
2022-12-14T08:38:58.721Z,34.47
2022-12-14T08:41:26.694Z,44.73
2022-12-14T08:43:57.624Z,41.10
2022-12-14T08:46:26.724Z,42.87
2022-12-14T08:48:55.358Z,37.27
2022-12-14T08:51:25.163Z,39.43
2022-12-14T08:53:53.051Z,39.77
2022-12-14T08:56:24.243Z,39.13
2022-12-14T08:58:51.216Z,42.33
2022-12-14T09:01:28.192Z,45.00
2022-12-14T09:04:06.934Z,39.97
2022-12-14T09:06:37.234Z,45.00
2022-12-14T09:09:10.431Z,42.67
2022-12-14T09:11:42.111Z,42.10
2022-12-14T09:14:08.618Z,46.20
2022-12-14T09:16:35.224Z,37.87
2022-12-14T09:19:01.878Z,35.53
2022-12-14T09:21:28.544Z,39.83
2022-12-14T09:23:59.196Z,39.67
2022-12-14T09:26:27.363Z,39.20
2022-12-14T09:28:55.882Z,45.80
2022-12-14T09:31:26.759Z,36.37
2022-12-14T09:33:54.222Z,46.57
2022-12-14T09:36:25.560Z,35.90
2022-12-14T09:38:54.539Z,38.03
2022-12-14T09:42:01.238Z,37.07
2022-12-14T09:45:10.673Z,38.50
2022-12-14T09:49:01.420Z,38.53
2022-12-14T09:51:36.618Z,35.00
2022-12-14T09:54:11.924Z,35.17
2022-12-14T09:56:40.044Z,45.40
2022-12-14T09:59:13.721Z,39.00
2022-12-14T10:02:31.473Z,35.93
2022-12-14T10:09:16.304Z,41.67
2022-12-14T10:15:14.981Z,36.23
2022-12-14T10:20:47.524Z,33.07
2022-12-14T10:23:22.973Z,45.83
2022-12-14T10:25:56.754Z,38.37
2022-12-14T10:29:01.463Z,34.47
2022-12-14T10:31:53.228Z,43.47
2022-12-14T10:34:27.897Z,32.70
2022-12-14T10:37:34.112Z,33.03
2022-12-14T10:41:24.715Z,31.73
2022-12-14T10:44:29.828Z,35.67
2022-12-14T10:47:36.582Z,33.10
2022-12-14T10:52:40.794Z,32.90
2022-12-14T10:55:28.957Z,33.77
2022-12-14T10:57:55.477Z,34.27
2022-12-14T11:00:23.797Z,37.43
2022-12-14T11:02:55.864Z,42.30
2022-12-14T11:06:16.551Z,33.30
2022-12-14T11:08:47.871Z,37.40
2022-12-14T11:11:27.029Z,35.37
2022-12-14T11:14:07.647Z,28.17
2022-12-14T11:16:38.963Z,34.70
2022-12-14T11:19:17.406Z,38.43
2022-12-14T11:21:45.363Z,49.77
2022-12-14T11:24:27.996Z,37.90
2022-12-14T11:27:01.549Z,38.70
2022-12-14T11:29:37.201Z,37.57
2022-12-14T11:32:05.114Z,36.70
2022-12-14T11:34:39.813Z,36.20
2022-12-14T11:37:26.007Z,40.27
2022-12-14T11:40:05.710Z,40.33
2022-12-14T11:42:33.292Z,32.53
2022-12-14T11:45:30.705Z,40.87
2022-12-14T11:49:57.024Z,39.53
2022-12-14T11:52:42.408Z,39.23
2022-12-14T11:55:26.727Z,41.30
2022-12-14T11:57:59.103Z,40.10
2022-12-14T12:00:54.817Z,36.00
2022-12-14T12:03:38.810Z,32.20
2022-12-14T12:06:10.890Z,40.43
2022-12-14T12:08:40.937Z,38.07
2022-12-14T12:11:25.998Z,42.20
2022-12-14T12:14:00.788Z,32.37
2022-12-14T12:16:30.045Z,42.77
2022-12-14T12:19:39.414Z,32.57
2022-12-14T12:22:11.046Z,35.07
2022-12-14T12:28:17.105Z,40.37
2022-12-14T12:30:50.440Z,33.57
2022-12-14T12:33:33.502Z,36.90
2022-12-14T12:36:04.698Z,40.17
2022-12-14T12:39:09.739Z,37.53
2022-12-14T12:45:53.813Z,37.50
2022-12-14T12:48:39.637Z,31.17
2022-12-14T12:51:15.390Z,33.73
2022-12-14T12:53:58.232Z,33.93
2022-12-14T12:56:55.209Z,35.70
2022-12-14T13:00:06.465Z,33.77
2022-12-14T13:02:44.695Z,34.10
2022-12-14T13:05:45.827Z,49.70
2022-12-14T13:08:26.290Z,38.17
2022-12-14T13:14:33.650Z,35.30
2022-12-14T13:17:05.460Z,45.90
2022-12-14T13:19:52.069Z,39.10
2022-12-14T13:22:31.151Z,40.53
2022-12-14T13:25:10.255Z,47.67
2022-12-14T13:28:22.659Z,45.50
2022-12-14T13:35:17.535Z,41.43
2022-12-14T13:38:46.168Z,37.97
2022-12-14T13:41:44.704Z,39.67
2022-12-14T13:45:02.331Z,39.57
2022-12-14T13:47:43.014Z,37.97
2022-12-14T13:50:42.246Z,41.33
2022-12-14T13:53:41.406Z,50.33
2022-12-14T13:56:09.034Z,63.07
2022-12-14T13:58:47.696Z,45.10
2022-12-14T14:01:54.233Z,40.93
2022-12-14T14:04:30.259Z,44.20
2022-12-14T14:08:39.279Z,37.77
2022-12-14T14:12:43.020Z,38.83
2022-12-14T14:19:22.394Z,32.67
2022-12-14T14:22:26.718Z,33.30
2022-12-14T14:27:00.380Z,40.97
2022-12-14T14:29:29.880Z,40.10
2022-12-14T14:32:05.949Z,41.03
2022-12-14T14:34:50.437Z,41.43
2022-12-14T14:37:37.773Z,47.50
2022-12-14T14:40:58.609Z,45.57
2022-12-14T14:43:51.109Z,45.23
2022-12-14T14:46:23.067Z,41.30
2022-12-14T14:48:59.801Z,41.33
2022-12-14T14:51:31.943Z,43.77
2022-12-14T14:56:39.149Z,44.83
2022-12-14T15:00:10.460Z,46.97
2022-12-14T15:02:42.264Z,43.23
2022-12-14T15:08:28.891Z,38.23
2022-12-14T15:10:57.654Z,49.23
2022-12-14T15:13:36.430Z,44.73
2022-12-14T15:16:02.980Z,50.13
2022-12-14T15:18:31.500Z,43.23
2022-12-14T15:21:10.952Z,44.53
2022-12-14T15:23:45.030Z,58.67
2022-12-14T15:26:26.563Z,41.53
2022-12-14T15:28:57.430Z,40.60
2022-12-14T15:31:34.886Z,39.47
2022-12-14T15:34:02.521Z,46.73
2022-12-14T15:36:41.395Z,46.47
2022-12-14T15:40:06.271Z,44.40
2022-12-14T15:42:32.775Z,43.03
2022-12-14T15:45:13.008Z,45.73
2022-12-14T15:47:39.474Z,42.60
2022-12-14T15:50:31.921Z,48.30
2022-12-14T15:53:14.373Z,44.63
2022-12-14T15:55:43.125Z,39.70
2022-12-14T15:58:40.070Z,47.50
2022-12-14T16:01:40.105Z,42.87
2022-12-14T16:04:14.701Z,41.60
2022-12-14T16:06:49.471Z,37.83
2022-12-14T16:09:41.665Z,49.90
2022-12-14T16:12:40.897Z,36.77
2022-12-14T16:15:25.389Z,46.60
2022-12-14T16:18:01.435Z,41.30
2022-12-14T16:20:33.395Z,50.17
2022-12-14T16:23:50.212Z,44.10
2022-12-14T16:26:37.210Z,45.07
2022-12-14T16:29:37.306Z,52.37
2022-12-14T16:32:13.248Z,38.07
2022-12-14T16:34:47.343Z,53.87
2022-12-14T16:37:32.687Z,44.77
2022-12-14T16:40:00.097Z,55.47
2022-12-14T16:42:27.272Z,46.87
2022-12-14T16:44:53.871Z,40.10
2022-12-14T16:49:54.167Z,38.40
2022-12-14T16:52:30.302Z,43.33
2022-12-14T16:56:15.560Z,52.30
2022-12-14T16:58:53.501Z,43.40
2022-12-14T17:01:20.781Z,39.93
2022-12-14T17:03:59.329Z,45.90
2022-12-14T17:06:45.029Z,51.13
2022-12-14T17:09:24.849Z,44.67
2022-12-14T17:11:56.711Z,40.70
2022-12-14T17:14:23.347Z,41.90
2022-12-14T17:17:01.028Z,48.40
2022-12-14T17:19:36.614Z,45.27
2022-12-14T17:22:15.476Z,46.83
2022-12-14T17:24:41.974Z,39.83
2022-12-14T17:27:14.798Z,39.80
2022-12-14T17:29:41.314Z,39.67
2022-12-14T17:32:12.444Z,43.73
2022-12-14T17:34:39.163Z,41.23
2022-12-14T17:37:16.142Z,43.17
2022-12-14T17:39:42.744Z,39.13
2022-12-14T17:42:15.500Z,46.47
2022-12-14T17:44:47.799Z,46.80
2022-12-14T17:47:14.537Z,47.13
2022-12-14T17:49:42.282Z,50.37
2022-12-14T17:52:37.597Z,49.03
2022-12-14T17:55:04.847Z,42.87
2022-12-14T17:57:31.309Z,40.13
2022-12-14T18:00:15.906Z,42.90
2022-12-14T18:02:45.452Z,48.60
2022-12-14T18:05:19.907Z,49.50
2022-12-14T18:07:46.437Z,50.63
2022-12-14T18:10:17.634Z,53.70
2022-12-14T18:12:44.309Z,57.10
2022-12-14T18:15:21.120Z,48.93
2022-12-14T18:17:49.442Z,58.00
2022-12-14T18:20:16.498Z,55.70
2022-12-14T18:22:44.125Z,48.57
2022-12-14T18:25:51.980Z,52.93
2022-12-14T18:28:19.437Z,55.33
2022-12-14T18:30:57.650Z,52.80
2022-12-14T18:33:26.631Z,51.90
2022-12-14T18:35:56.175Z,51.90
2022-12-14T18:38:22.948Z,58.30
2022-12-14T18:40:53.436Z,67.57
2022-12-14T18:43:25.775Z,60.27
2022-12-14T18:45:54.205Z,56.00
2022-12-14T18:48:22.176Z,50.30
2022-12-14T18:50:50.206Z,59.23
2022-12-14T18:53:20.294Z,54.10
2022-12-14T18:55:50.225Z,48.43
2022-12-14T18:58:24.114Z,52.40
2022-12-14T19:00:54.333Z,63.93
2022-12-14T19:03:21.307Z,62.93
2022-12-14T19:05:48.455Z,59.97
2022-12-14T19:08:15.176Z,58.33
2022-12-14T19:10:47.210Z,76.97
2022-12-14T19:13:25.496Z,70.23
2022-12-14T19:15:53.702Z,58.33
2022-12-14T19:18:20.338Z,63.70
2022-12-14T19:20:49.546Z,62.00
2022-12-14T19:23:18.254Z,75.13
2022-12-14T19:25:46.053Z,83.33
2022-12-14T19:28:31.585Z,111.47
2022-12-14T19:31:00.142Z,106.50
2022-12-14T19:33:27.459Z,92.70
2022-12-14T19:35:54.226Z,94.37
2022-12-14T19:38:20.879Z,69.00
2022-12-14T19:41:04.173Z,67.07
2022-12-14T19:43:31.356Z,66.77
2022-12-14T19:45:58.284Z,71.73
2022-12-14T19:48:24.820Z,65.10
2022-12-14T19:50:51.444Z,86.43
2022-12-14T19:53:23.150Z,85.33
2022-12-14T19:55:52.348Z,91.47
2022-12-14T19:58:21.201Z,75.43
2022-12-14T20:00:49.098Z,71.43
2022-12-14T20:03:15.869Z,63.97
2022-12-14T20:05:50.883Z,50.07
2022-12-14T20:08:17.383Z,66.83
2022-12-14T20:10:43.897Z,79.57
2022-12-14T20:13:10.357Z,68.43
2022-12-14T20:15:37.078Z,59.17
2022-12-14T20:18:04.009Z,74.07
2022-12-14T20:20:33.925Z,56.30
2022-12-14T20:23:00.435Z,72.67
2022-12-14T20:25:26.931Z,63.23
2022-12-14T20:27:53.655Z,68.43
2022-12-14T20:30:20.134Z,63.23
2022-12-14T20:32:49.273Z,65.20
2022-12-14T20:35:17.925Z,76.97
2022-12-14T20:37:45.236Z,66.53
2022-12-14T20:40:12.797Z,80.53
2022-12-14T20:42:39.546Z,73.40
2022-12-14T20:45:07.629Z,78.77
2022-12-14T20:47:34.654Z,67.30
2022-12-14T20:50:01.181Z,69.17
2022-12-14T20:52:27.663Z,60.77
2022-12-14T20:54:54.172Z,62.40
2022-12-14T20:57:20.646Z,66.40
2022-12-14T20:59:47.134Z,77.47
2022-12-14T21:02:20.013Z,73.30
2022-12-14T21:04:46.589Z,69.37
2022-12-14T21:07:13.425Z,66.73
2022-12-14T21:09:39.882Z,62.67
2022-12-14T21:12:20.083Z,66.93
2022-12-14T21:14:51.352Z,57.67
2022-12-14T21:17:19.843Z,55.60
2022-12-14T21:19:47.028Z,65.50
2022-12-14T21:22:17.855Z,67.37
2022-12-14T21:25:02.465Z,52.73
2022-12-14T21:27:31.055Z,61.90
2022-12-14T21:29:59.258Z,65.17
2022-12-14T21:32:25.893Z,56.03
2022-12-14T21:34:52.379Z,58.03
2022-12-14T21:37:19.640Z,60.07
2022-12-14T21:39:53.912Z,70.40
2022-12-14T21:42:23.794Z,55.30
2022-12-14T21:44:52.530Z,56.50
2022-12-14T21:47:26.180Z,52.27
2022-12-14T21:49:53.691Z,60.87
2022-12-14T21:52:23.934Z,50.47
2022-12-14T21:54:50.892Z,51.13
2022-12-14T21:57:40.821Z,50.73
2022-12-14T22:00:09.606Z,55.23
2022-12-14T22:02:36.280Z,52.30
2022-12-14T22:05:03.009Z,63.50
2022-12-14T22:07:32.549Z,53.13
2022-12-14T22:09:59.131Z,53.13
2022-12-14T22:12:25.833Z,56.97
2022-12-14T22:14:52.446Z,60.63
2022-12-14T22:17:19.056Z,54.37
2022-12-14T22:19:45.523Z,67.93
2022-12-14T22:22:16.532Z,72.13
2022-12-14T22:24:43.950Z,70.37
2022-12-14T22:27:12.062Z,56.27
2022-12-14T22:29:38.692Z,45.03
2022-12-14T22:32:06.204Z,51.33
2022-12-14T22:34:32.751Z,49.10
2022-12-14T22:36:59.251Z,52.70
2022-12-14T22:39:25.751Z,57.50
2022-12-14T22:41:52.235Z,61.77
2022-12-14T22:44:18.706Z,57.27
2022-12-14T22:46:45.199Z,45.43
2022-12-14T22:49:16.864Z,54.13
2022-12-14T22:51:43.415Z,50.50
2022-12-14T22:54:18.061Z,53.40
2022-12-14T22:57:01.586Z,52.23
2022-12-14T22:59:47.065Z,53.73
2022-12-14T23:02:13.823Z,54.67
2022-12-14T23:04:40.527Z,51.73
2022-12-14T23:07:07.092Z,56.47
2022-12-14T23:09:51.912Z,53.03
2022-12-14T23:12:36.813Z,65.20
2022-12-14T23:15:22.581Z,58.60
2022-12-14T23:18:09.431Z,44.67
2022-12-14T23:20:57.163Z,54.90
2022-12-14T23:23:42.005Z,56.60
2022-12-14T23:26:26.841Z,50.33
2022-12-14T23:29:11.339Z,50.53
2022-12-14T23:31:56.244Z,51.33
2022-12-14T23:34:41.057Z,48.83
2022-12-14T23:37:25.799Z,58.87
2022-12-14T23:40:10.695Z,68.27
2022-12-14T23:42:55.546Z,60.80
2022-12-14T23:45:40.527Z,61.37
2022-12-14T23:48:25.382Z,63.23
2022-12-14T23:51:10.280Z,56.17
2022-12-14T23:53:55.157Z,66.30
2022-12-14T23:56:40.010Z,68.13
2022-12-14T23:59:29.730Z,60.47
